createdAt,value
2022-11-17T00:00:19.295Z,100.00
2022-11-17T00:02:47.454Z,100.00
2022-11-17T00:05:14.929Z,100.00
2022-11-17T00:07:45.098Z,100.00
2022-11-17T00:10:13.219Z,100.00
2022-11-17T00:12:59.846Z,100.00
2022-11-17T00:15:26.993Z,100.00
2022-11-17T00:18:12.254Z,100.00
2022-11-17T00:20:58.968Z,100.00
2022-11-17T00:23:26.976Z,100.00
2022-11-17T00:25:53.789Z,100.00
2022-11-17T00:28:20.642Z,100.00
2022-11-17T00:31:06.188Z,100.00
2022-11-17T00:33:51.819Z,100.00
2022-11-17T00:36:18.846Z,100.00
2022-11-17T00:38:45.688Z,100.00
2022-11-17T00:41:12.561Z,100.00
2022-11-17T00:43:39.353Z,100.00
2022-11-17T00:46:06.315Z,100.00
2022-11-17T00:48:33.130Z,100.00
2022-11-17T00:51:04.010Z,100.00
2022-11-17T00:53:31.022Z,100.00
2022-11-17T00:55:58.098Z,100.00
2022-11-17T00:58:25.077Z,100.00
2022-11-17T01:00:51.944Z,100.00
2022-11-17T01:03:19.107Z,100.00
2022-11-17T01:05:45.903Z,100.00
2022-11-17T01:08:12.987Z,100.00
2022-11-17T01:10:39.980Z,100.00
2022-11-17T01:13:07.014Z,100.00
2022-11-17T01:15:34.256Z,100.00
2022-11-17T01:18:01.123Z,100.00
2022-11-17T01:20:28.333Z,100.00
2022-11-17T01:22:55.695Z,100.00
2022-11-17T01:25:22.539Z,100.00
2022-11-17T01:27:49.496Z,100.00
2022-11-17T01:30:18.267Z,100.00
2022-11-17T01:32:45.255Z,100.00
2022-11-17T01:35:12.171Z,100.00
2022-11-17T01:37:39.270Z,100.00
2022-11-17T01:40:07.145Z,100.00
2022-11-17T01:42:34.057Z,100.00
2022-11-17T01:45:03.121Z,100.00
2022-11-17T01:47:52.110Z,100.00
2022-11-17T01:50:21.700Z,100.00
2022-11-17T01:52:50.302Z,100.00
2022-11-17T01:55:21.197Z,100.00
2022-11-17T01:57:57.294Z,100.00
2022-11-17T02:00:25.280Z,100.00
2022-11-17T02:02:53.367Z,100.00
2022-11-17T02:05:45.833Z,100.00
2022-11-17T02:08:15.000Z,100.00
2022-11-17T02:10:48.581Z,100.00
2022-11-17T02:13:20.761Z,100.00
2022-11-17T02:16:13.115Z,100.00
2022-11-17T02:18:41.974Z,100.00
2022-11-17T02:21:44.940Z,100.00
2022-11-17T02:24:33.526Z,100.00
2022-11-17T02:27:32.859Z,100.00
2022-11-17T02:30:10.750Z,100.00
2022-11-17T02:32:56.093Z,100.00
2022-11-17T02:35:33.209Z,100.00
2022-11-17T02:38:11.521Z,100.00
2022-11-17T02:40:42.845Z,100.00
2022-11-17T02:43:33.982Z,100.00
2022-11-17T02:46:11.057Z,100.00
2022-11-17T02:48:44.922Z,100.00
2022-11-17T02:51:20.682Z,100.00
2022-11-17T02:53:49.447Z,100.00
2022-11-17T02:56:16.339Z,100.00
2022-11-17T02:58:43.344Z,100.00
2022-11-17T03:01:22.446Z,100.00
2022-11-17T03:04:26.349Z,100.00
2022-11-17T03:07:11.609Z,100.00
2022-11-17T03:09:56.868Z,100.00
2022-11-17T03:12:46.430Z,100.00
2022-11-17T03:15:31.553Z,100.00
2022-11-17T03:18:18.654Z,100.00
2022-11-17T03:21:35.781Z,100.00
2022-11-17T03:24:14.154Z,100.00
2022-11-17T03:26:47.978Z,100.00
2022-11-17T03:29:19.226Z,100.00
2022-11-17T03:31:49.166Z,100.00
2022-11-17T03:34:20.471Z,100.00
2022-11-17T03:36:52.624Z,100.00
2022-11-17T03:39:29.717Z,100.00
2022-11-17T03:42:13.872Z,100.00
2022-11-17T03:44:45.140Z,100.00
2022-11-17T03:47:15.067Z,100.00
2022-11-17T03:49:54.813Z,100.00
2022-11-17T03:52:21.995Z,100.00
2022-11-17T03:54:49.298Z,100.00
2022-11-17T03:57:38.443Z,100.00
2022-11-17T04:00:08.425Z,100.00
2022-11-17T04:02:46.125Z,100.00
2022-11-17T04:05:15.059Z,100.00
2022-11-17T04:07:47.074Z,100.00
2022-11-17T04:10:19.554Z,100.00
2022-11-17T04:13:06.588Z,100.00
2022-11-17T04:15:52.787Z,100.00
2022-11-17T04:18:20.438Z,100.00
2022-11-17T04:20:56.985Z,100.00
2022-11-17T04:23:25.240Z,100.00
2022-11-17T04:26:13.758Z,100.00
2022-11-17T04:28:47.140Z,100.00
2022-11-17T04:31:18.530Z,100.00
2022-11-17T04:33:47.693Z,100.00
2022-11-17T04:36:17.791Z,100.00
2022-11-17T04:38:50.859Z,100.00
2022-11-17T04:41:38.446Z,100.00
2022-11-17T04:44:06.676Z,100.00
2022-11-17T04:46:35.790Z,100.00
2022-11-17T04:49:04.384Z,100.00
2022-11-17T04:51:32.811Z,100.00
2022-11-17T04:54:00.115Z,100.00
2022-11-17T04:56:28.882Z,100.00
2022-11-17T04:58:56.629Z,100.00
2022-11-17T05:01:24.772Z,100.00
2022-11-17T05:03:51.734Z,100.00
2022-11-17T05:06:38.814Z,100.00
2022-11-17T05:09:08.415Z,100.00
2022-11-17T05:11:53.972Z,100.00
2022-11-17T05:14:22.815Z,100.00
2022-11-17T05:17:09.558Z,100.00
2022-11-17T05:19:44.470Z,100.00
2022-11-17T05:22:32.080Z,100.00
2022-11-17T05:24:59.513Z,100.00
2022-11-17T05:27:26.997Z,100.00
2022-11-17T05:29:54.210Z,100.00
2022-11-17T05:32:21.117Z,100.00
2022-11-17T05:34:48.184Z,100.00
2022-11-17T05:37:15.358Z,100.00
2022-11-17T05:39:42.204Z,100.00
2022-11-17T05:42:09.192Z,100.00
2022-11-17T05:44:37.160Z,100.00
2022-11-17T05:47:04.261Z,100.00
2022-11-17T05:49:31.090Z,100.00
2022-11-17T05:51:58.161Z,100.00
2022-11-17T05:54:26.898Z,100.00
2022-11-17T05:57:05.553Z,100.00
2022-11-17T05:59:56.762Z,100.00
2022-11-17T06:02:31.261Z,100.00
2022-11-17T06:04:58.339Z,100.00
2022-11-17T06:07:25.170Z,100.00
2022-11-17T06:09:52.656Z,100.00
2022-11-17T06:12:19.518Z,100.00
2022-11-17T06:14:46.346Z,100.00
2022-11-17T06:17:24.871Z,100.00
2022-11-17T06:19:58.447Z,100.00
2022-11-17T06:22:27.242Z,100.00
2022-11-17T06:24:55.007Z,100.00
2022-11-17T06:27:22.779Z,100.00
2022-11-17T06:29:49.952Z,100.00
2022-11-17T06:32:18.750Z,100.00
2022-11-17T06:34:54.862Z,100.00
2022-11-17T06:37:23.659Z,100.00
2022-11-17T06:39:50.519Z,100.00
2022-11-17T06:42:17.372Z,100.00
2022-11-17T06:44:44.335Z,100.00
2022-11-17T06:47:11.155Z,100.00
2022-11-17T06:49:38.302Z,100.00
2022-11-17T06:52:06.429Z,100.00
2022-11-17T06:54:33.332Z,100.00
2022-11-17T06:57:00.351Z,100.00
2022-11-17T06:59:27.240Z,100.00
2022-11-17T07:01:54.201Z,100.00
2022-11-17T07:04:21.085Z,100.00
2022-11-17T07:06:48.159Z,100.00
2022-11-17T07:09:15.204Z,100.00
2022-11-17T07:11:42.040Z,100.00
2022-11-17T07:14:08.846Z,100.00
2022-11-17T07:16:35.884Z,100.00
2022-11-17T07:19:03.823Z,100.00
2022-11-17T07:21:31.198Z,100.00
2022-11-17T07:23:58.467Z,100.00
2022-11-17T07:26:25.340Z,100.00
2022-11-17T07:28:52.302Z,100.00
2022-11-17T07:31:19.174Z,100.00
2022-11-17T07:33:46.121Z,100.00
2022-11-17T07:36:17.506Z,100.00
2022-11-17T07:38:44.485Z,100.00
2022-11-17T07:41:14.149Z,100.00
2022-11-17T07:43:41.236Z,100.00
2022-11-17T07:46:11.606Z,100.00
2022-11-17T07:48:39.253Z,100.00
2022-11-17T07:51:06.846Z,100.00
2022-11-17T07:53:35.399Z,100.00
2022-11-17T07:56:04.373Z,100.00
2022-11-17T07:58:31.571Z,100.00
2022-11-17T08:00:58.592Z,100.00
2022-11-17T08:03:25.771Z,100.00
2022-11-17T08:05:53.840Z,100.00
2022-11-17T08:08:20.991Z,100.00
2022-11-17T08:10:47.766Z,100.00
2022-11-17T08:13:15.919Z,98.95
2022-11-17T08:15:42.841Z,95.05
2022-11-17T08:18:10.004Z,92.78
2022-11-17T08:20:37.002Z,90.32
2022-11-17T08:23:04.073Z,91.69
2022-11-17T08:25:30.940Z,90.51
2022-11-17T08:27:58.558Z,90.57
2022-11-17T08:30:26.572Z,88.04
2022-11-17T08:32:54.492Z,88.45
2022-11-17T08:35:25.464Z,85.50
2022-11-17T08:37:53.397Z,85.07
2022-11-17T08:40:21.298Z,87.67
2022-11-17T08:42:59.183Z,85.84
2022-11-17T08:45:27.867Z,87.29
2022-11-17T08:47:56.419Z,84.50
2022-11-17T08:50:23.633Z,87.10
2022-11-17T08:52:52.366Z,85.04
2022-11-17T08:55:19.614Z,85.46
2022-11-17T08:57:46.606Z,84.88
2022-11-17T09:00:14.371Z,85.19
2022-11-17T09:02:41.448Z,82.85
2022-11-17T09:05:08.877Z,82.72
2022-11-17T09:07:36.012Z,82.73
2022-11-17T09:10:05.420Z,79.08
2022-11-17T09:12:32.580Z,78.00
2022-11-17T09:14:59.540Z,75.83
2022-11-17T09:17:26.456Z,77.58
2022-11-17T09:19:53.733Z,76.70
2022-11-17T09:22:21.237Z,75.32
2022-11-17T09:24:48.290Z,74.98
2022-11-17T09:27:15.382Z,74.66
2022-11-17T09:29:42.233Z,72.58
2022-11-17T09:32:09.032Z,73.65
2022-11-17T09:34:36.167Z,75.52
2022-11-17T09:37:03.147Z,76.08
2022-11-17T09:39:30.031Z,75.25
2022-11-17T09:41:57.536Z,73.56
2022-11-17T09:44:24.569Z,75.01
2022-11-17T09:46:57.670Z,78.11
2022-11-17T09:49:46.272Z,80.86
2022-11-17T09:52:19.372Z,82.44
2022-11-17T09:54:55.600Z,83.95
2022-11-17T09:57:31.147Z,86.09
2022-11-17T10:00:22.560Z,86.97
2022-11-17T10:02:51.564Z,87.87
2022-11-17T10:05:26.413Z,90.19
2022-11-17T10:07:56.361Z,92.67
2022-11-17T10:10:35.347Z,92.86
2022-11-17T10:13:06.015Z,93.38
2022-11-17T10:15:47.500Z,91.09
2022-11-17T10:18:16.133Z,89.88
2022-11-17T10:20:45.028Z,88.34
2022-11-17T10:23:19.975Z,89.10
2022-11-17T10:25:49.592Z,89.96
2022-11-17T10:28:31.858Z,84.26
2022-11-17T10:31:03.402Z,84.34
2022-11-17T10:33:41.184Z,86.71
2022-11-17T10:36:19.264Z,89.50
2022-11-17T10:38:51.724Z,85.15
2022-11-17T10:41:23.065Z,84.38
2022-11-17T10:43:59.885Z,81.35
2022-11-17T10:46:31.435Z,80.30
2022-11-17T10:49:05.275Z,80.60
2022-11-17T10:51:32.919Z,79.49
2022-11-17T10:54:14.939Z,79.65
2022-11-17T10:56:51.575Z,77.09
2022-11-17T10:59:29.920Z,78.79
2022-11-17T11:01:57.140Z,77.78
2022-11-17T11:04:34.771Z,75.31
2022-11-17T11:07:08.116Z,75.16
2022-11-17T11:09:41.507Z,75.41
2022-11-17T11:12:16.531Z,75.23
2022-11-17T11:14:52.700Z,75.29
2022-11-17T11:17:20.442Z,74.41
2022-11-17T11:19:54.116Z,74.92
2022-11-17T11:22:42.585Z,74.11
2022-11-17T11:25:09.706Z,75.55
2022-11-17T11:27:56.209Z,74.81
2022-11-17T11:30:23.857Z,72.45
2022-11-17T11:33:12.595Z,72.89
2022-11-17T11:35:55.024Z,71.42
2022-11-17T11:38:44.929Z,71.98
2022-11-17T11:41:26.818Z,70.70
2022-11-17T11:44:06.479Z,70.90
2022-11-17T11:46:45.463Z,71.13
2022-11-17T11:49:40.551Z,71.85
2022-11-17T11:52:16.302Z,71.36
2022-11-17T11:54:53.485Z,70.44
2022-11-17T11:57:27.123Z,70.83
2022-11-17T12:00:04.690Z,70.62
2022-11-17T12:03:01.179Z,70.30
2022-11-17T12:05:50.039Z,71.29
2022-11-17T12:08:32.235Z,71.53
2022-11-17T12:11:29.950Z,71.31
2022-11-17T12:13:57.870Z,71.09
2022-11-17T12:16:35.264Z,70.84
2022-11-17T12:19:03.124Z,71.44
2022-11-17T12:21:32.504Z,71.57
2022-11-17T12:24:16.806Z,71.57
2022-11-17T12:26:45.310Z,72.09
2022-11-17T12:29:44.980Z,73.21
2022-11-17T12:32:43.891Z,72.95
2022-11-17T12:35:27.726Z,73.92
2022-11-17T12:38:20.124Z,72.11
2022-11-17T12:40:51.660Z,73.99
2022-11-17T12:43:19.652Z,73.27
2022-11-17T12:45:52.825Z,73.04
2022-11-17T12:48:33.327Z,72.57
2022-11-17T12:51:06.533Z,72.13
2022-11-17T12:53:48.555Z,71.56
2022-11-17T12:56:33.342Z,71.75
2022-11-17T12:59:12.450Z,71.55
2022-11-17T13:02:17.808Z,71.37
2022-11-17T13:05:01.953Z,70.51
2022-11-17T13:07:30.103Z,69.20
2022-11-17T13:09:59.197Z,69.20
2022-11-17T13:12:28.520Z,69.62
2022-11-17T13:14:56.463Z,69.36
2022-11-17T13:17:29.815Z,69.54
2022-11-17T13:20:20.069Z,68.58
2022-11-17T13:23:04.921Z,69.25
2022-11-17T13:25:32.360Z,68.52
2022-11-17T13:28:04.482Z,69.38
2022-11-17T13:30:33.212Z,68.08
2022-11-17T13:33:03.730Z,67.78
2022-11-17T13:35:33.253Z,70.62
2022-11-17T13:38:21.669Z,68.76
2022-11-17T13:40:53.562Z,69.23
2022-11-17T13:43:23.081Z,69.29
2022-11-17T13:45:53.568Z,69.77
2022-11-17T13:48:41.381Z,70.58
2022-11-17T13:51:28.381Z,70.43
2022-11-17T13:54:14.201Z,71.27
2022-11-17T13:56:46.100Z,72.04
2022-11-17T13:59:26.288Z,71.71
2022-11-17T14:02:15.217Z,71.69
2022-11-17T14:05:08.600Z,71.70
2022-11-17T14:07:38.604Z,72.05
2022-11-17T14:10:28.142Z,72.39
2022-11-17T14:13:01.148Z,71.94
2022-11-17T14:15:37.569Z,72.82
2022-11-17T14:18:28.795Z,72.18
2022-11-17T14:21:09.792Z,73.01
2022-11-17T14:23:37.217Z,72.76
2022-11-17T14:26:04.451Z,72.92
2022-11-17T14:28:31.476Z,73.26
2022-11-17T14:30:58.533Z,72.64
2022-11-17T14:33:26.194Z,73.22
2022-11-17T14:35:56.159Z,73.94
2022-11-17T14:38:23.347Z,73.55
2022-11-17T14:40:52.085Z,74.04
2022-11-17T14:43:20.906Z,74.70
2022-11-17T14:45:48.846Z,75.00
2022-11-17T14:48:19.290Z,75.10
2022-11-17T14:50:47.397Z,75.06
2022-11-17T14:53:14.596Z,75.90
2022-11-17T14:55:41.577Z,75.65
2022-11-17T14:58:10.028Z,75.68
2022-11-17T15:00:37.897Z,76.89
2022-11-17T15:03:04.859Z,77.64
2022-11-17T15:05:32.268Z,77.87
2022-11-17T15:07:59.199Z,78.21
2022-11-17T15:10:26.081Z,79.66
2022-11-17T15:12:52.944Z,80.33
2022-11-17T15:15:20.021Z,81.85
2022-11-17T15:17:46.929Z,83.06
2022-11-17T15:20:14.140Z,83.23
2022-11-17T15:22:41.042Z,84.52
2022-11-17T15:25:08.628Z,85.04
2022-11-17T15:27:35.834Z,85.52
2022-11-17T15:30:02.863Z,86.88
2022-11-17T15:32:30.031Z,86.58
2022-11-17T15:34:57.116Z,86.58
2022-11-17T15:37:24.989Z,88.04
2022-11-17T15:39:51.862Z,87.83
2022-11-17T15:42:18.985Z,87.79
2022-11-17T15:44:45.923Z,88.84
2022-11-17T15:47:12.927Z,88.85
2022-11-17T15:49:39.812Z,89.98
2022-11-17T15:52:06.760Z,91.33
2022-11-17T15:54:33.920Z,91.02
2022-11-17T15:57:02.786Z,91.60
2022-11-17T15:59:29.946Z,92.60
2022-11-17T16:01:56.792Z,93.31
2022-11-17T16:04:23.720Z,93.04
2022-11-17T16:06:50.781Z,92.82
2022-11-17T16:09:18.311Z,92.77
2022-11-17T16:11:45.439Z,93.01
2022-11-17T16:14:14.933Z,93.65
2022-11-17T16:16:42.193Z,93.63
2022-11-17T16:19:09.240Z,94.84
2022-11-17T16:21:36.158Z,95.44
2022-11-17T16:24:03.484Z,95.05
2022-11-17T16:26:30.569Z,96.66
2022-11-17T16:29:04.146Z,96.97
2022-11-17T16:31:33.937Z,97.79
2022-11-17T16:34:04.494Z,97.23
2022-11-17T16:36:36.893Z,97.35
2022-11-17T16:39:06.953Z,98.47
2022-11-17T16:41:37.080Z,99.37
2022-11-17T16:44:09.572Z,99.30
2022-11-17T16:46:36.732Z,99.43
2022-11-17T16:49:07.651Z,99.70
2022-11-17T16:51:35.239Z,100.00
2022-11-17T16:54:05.129Z,100.00
2022-11-17T16:56:33.615Z,100.00
2022-11-17T16:59:01.280Z,100.00
2022-11-17T17:01:36.269Z,100.00
2022-11-17T17:04:08.208Z,100.00
2022-11-17T17:06:37.346Z,100.00
2022-11-17T17:09:06.853Z,100.00
2022-11-17T17:11:35.742Z,100.00
2022-11-17T17:14:06.318Z,100.00
2022-11-17T17:16:35.860Z,100.00
2022-11-17T17:19:04.919Z,100.00
2022-11-17T17:21:33.201Z,100.00
2022-11-17T17:24:00.355Z,100.00
2022-11-17T17:26:29.521Z,100.00
2022-11-17T17:28:59.283Z,100.00
2022-11-17T17:31:30.717Z,100.00
2022-11-17T17:34:00.032Z,100.00
2022-11-17T17:36:27.404Z,100.00
2022-11-17T17:38:56.556Z,100.00
2022-11-17T17:41:29.284Z,100.00
2022-11-17T17:44:01.364Z,100.00
2022-11-17T17:46:29.956Z,100.00
2022-11-17T17:48:57.169Z,100.00
2022-11-17T17:51:26.035Z,100.00
2022-11-17T17:53:55.912Z,100.00
2022-11-17T17:56:23.640Z,100.00
2022-11-17T17:58:51.833Z,100.00
2022-11-17T18:01:30.788Z,100.00
2022-11-17T18:04:04.684Z,100.00
2022-11-17T18:06:37.499Z,100.00
2022-11-17T18:09:06.163Z,100.00
2022-11-17T18:11:50.646Z,100.00
2022-11-17T18:14:24.672Z,100.00
2022-11-17T18:16:52.656Z,100.00
2022-11-17T18:19:19.862Z,100.00
2022-11-17T18:21:46.863Z,100.00
2022-11-17T18:24:14.003Z,100.00
2022-11-17T18:26:41.305Z,100.00
2022-11-17T18:29:11.995Z,100.00
2022-11-17T18:31:39.301Z,100.00
2022-11-17T18:34:15.737Z,100.00
2022-11-17T18:36:42.987Z,100.00
2022-11-17T18:39:10.133Z,100.00
2022-11-17T18:41:37.404Z,100.00
2022-11-17T18:44:05.025Z,100.00
2022-11-17T18:46:32.896Z,100.00
2022-11-17T18:49:00.656Z,100.00
2022-11-17T18:51:30.698Z,100.00
2022-11-17T18:54:00.376Z,100.00
2022-11-17T18:56:31.194Z,100.00
2022-11-17T18:58:59.525Z,100.00
2022-11-17T19:01:29.144Z,100.00
2022-11-17T19:04:02.657Z,100.00
2022-11-17T19:06:30.661Z,100.00
2022-11-17T19:08:59.635Z,100.00
2022-11-17T19:11:28.852Z,100.00
2022-11-17T19:13:55.711Z,100.00
2022-11-17T19:16:25.431Z,100.00
2022-11-17T19:18:54.699Z,100.00
2022-11-17T19:21:30.136Z,100.00
2022-11-17T19:23:59.490Z,100.00
2022-11-17T19:26:29.192Z,100.00
2022-11-17T19:28:58.099Z,100.00
2022-11-17T19:31:25.780Z,100.00
2022-11-17T19:33:53.934Z,100.00
2022-11-17T19:36:22.847Z,100.00
2022-11-17T19:38:54.718Z,100.00
2022-11-17T19:41:36.581Z,100.00
2022-11-17T19:44:09.031Z,100.00
2022-11-17T19:46:36.439Z,100.00
2022-11-17T19:49:06.149Z,100.00
2022-11-17T19:51:36.668Z,100.00
2022-11-17T19:54:06.754Z,100.00
2022-11-17T19:56:33.939Z,100.00
2022-11-17T19:59:00.810Z,100.00
2022-11-17T20:01:29.396Z,100.00
2022-11-17T20:03:58.099Z,100.00
2022-11-17T20:06:27.812Z,100.00
2022-11-17T20:08:56.045Z,100.00
2022-11-17T20:11:25.208Z,100.00
2022-11-17T20:13:53.118Z,100.00
2022-11-17T20:16:24.678Z,100.00
2022-11-17T20:18:54.543Z,100.00
2022-11-17T20:21:22.044Z,100.00
2022-11-17T20:23:49.220Z,100.00
2022-11-17T20:26:19.373Z,100.00
2022-11-17T20:28:47.838Z,100.00
2022-11-17T20:31:24.449Z,100.00
2022-11-17T20:33:53.936Z,100.00
2022-11-17T20:36:23.606Z,100.00
2022-11-17T20:38:52.075Z,100.00
2022-11-17T20:41:21.043Z,100.00
2022-11-17T20:43:49.681Z,100.00
2022-11-17T20:46:17.473Z,100.00
2022-11-17T20:48:44.752Z,100.00
2022-11-17T20:51:14.680Z,100.00
2022-11-17T20:53:41.797Z,100.00
2022-11-17T20:56:11.048Z,100.00
2022-11-17T20:58:38.412Z,100.00
2022-11-17T21:01:11.438Z,100.00
2022-11-17T21:03:38.821Z,100.00
2022-11-17T21:06:06.394Z,100.00
2022-11-17T21:08:35.342Z,100.00
2022-11-17T21:11:04.886Z,100.00
2022-11-17T21:13:33.850Z,100.00
2022-11-17T21:16:06.856Z,100.00
2022-11-17T21:18:35.320Z,100.00
2022-11-17T21:21:04.521Z,100.00
2022-11-17T21:23:32.276Z,100.00
2022-11-17T21:26:03.776Z,100.00
2022-11-17T21:28:30.871Z,100.00
2022-11-17T21:31:13.726Z,100.00
2022-11-17T21:33:41.047Z,100.00
2022-11-17T21:36:14.195Z,100.00
2022-11-17T21:38:42.151Z,100.00
2022-11-17T21:41:57.134Z,100.00
2022-11-17T21:44:12.198Z,100.00
2022-11-17T21:46:39.036Z,100.00
2022-11-17T21:49:06.043Z,100.00
2022-11-17T21:51:37.857Z,100.00
2022-11-17T21:54:17.391Z,100.00
2022-11-17T21:56:46.232Z,100.00
2022-11-17T21:59:14.019Z,100.00
2022-11-17T22:01:41.492Z,100.00
2022-11-17T22:04:10.650Z,100.00
2022-11-17T22:06:38.291Z,100.00
2022-11-17T22:09:05.200Z,100.00
2022-11-17T22:11:35.987Z,100.00
2022-11-17T22:14:29.973Z,100.00
2022-11-17T22:16:57.238Z,100.00
2022-11-17T22:19:27.013Z,100.00
2022-11-17T22:21:54.806Z,100.00
2022-11-17T22:24:21.965Z,100.00
2022-11-17T22:26:49.185Z,100.00
2022-11-17T22:29:19.106Z,100.00
2022-11-17T22:31:48.594Z,100.00
2022-11-17T22:34:15.907Z,100.00
2022-11-17T22:36:43.153Z,100.00
2022-11-17T22:39:10.470Z,100.00
2022-11-17T22:41:37.525Z,100.00
2022-11-17T22:44:04.737Z,100.00
2022-11-17T22:46:31.628Z,100.00
2022-11-17T22:48:58.706Z,100.00
2022-11-17T22:51:44.044Z,100.00
2022-11-17T22:54:11.514Z,100.00
2022-11-17T22:56:39.224Z,100.00
2022-11-17T22:59:06.715Z,100.00
2022-11-17T23:01:33.801Z,100.00
2022-11-17T23:04:03.968Z,100.00
2022-11-17T23:06:30.998Z,100.00
2022-11-17T23:08:58.352Z,100.00
2022-11-17T23:11:42.113Z,100.00
2022-11-17T23:14:11.789Z,100.00
2022-11-17T23:16:38.780Z,100.00
2022-11-17T23:19:06.018Z,100.00
2022-11-17T23:21:32.886Z,100.00
2022-11-17T23:23:59.991Z,100.00
2022-11-17T23:26:26.947Z,100.00
2022-11-17T23:28:54.014Z,100.00
2022-11-17T23:31:21.062Z,100.00
2022-11-17T23:33:48.578Z,100.00
2022-11-17T23:36:19.127Z,100.00
2022-11-17T23:38:47.145Z,100.00
2022-11-17T23:41:16.119Z,100.00
2022-11-17T23:43:43.318Z,100.00
2022-11-17T23:46:15.242Z,100.00
2022-11-17T23:48:43.300Z,100.00
2022-11-17T23:51:12.870Z,100.00
2022-11-17T23:53:40.760Z,100.00
2022-11-17T23:56:08.851Z,100.00
2022-11-17T23:58:36.573Z,100.00
